Time;durP1;ratioP1;P1;durP2;ratioP2;P2;SDS_P1;SDS_P2;PMS_P1;PMS_P2;Temp;Humidity;BMP_temperature;BMP_pressure;BME280_temperature;BME280_humidity;BME280_pressure;Samples;Min_cycle;Max_cycle;Signal;HPM_P1;HPM_P2
2022/10/28 00:00:25;;;;;;;11.68;3.70;;;16.00;92.90;;;;;;4975949;28;20110;-64
2022/10/28 00:02:50;;;;;;;11.57;3.83;;;16.00;92.80;;;;;;4976046;28;20034;-64
2022/10/28 00:05:16;;;;;;;9.98;4.55;;;16.00;92.80;;;;;;4976487;28;20027;-64
2022/10/28 00:07:41;;;;;;;7.63;4.03;;;15.90;92.70;;;;;;4975544;28;20544;-64
2022/10/28 00:10:08;;;;;;;16.00;4.30;;;15.90;92.80;;;;;;4976277;28;20039;-64
2022/10/28 00:12:37;;;;;;;8.63;4.50;;;15.90;92.80;;;;;;4975089;28;20519;-66
2022/10/28 00:15:04;;;;;;;10.48;4.40;;;15.90;92.90;;;;;;4975976;28;20094;-64
2022/10/28 00:17:29;;;;;;;12.40;4.38;;;15.80;92.80;;;;;;4975853;28;20043;-64
2022/10/28 00:19:55;;;;;;;13.00;5.47;;;15.80;92.90;;;;;;4975552;28;20037;-64
2022/10/28 00:22:21;;;;;;;14.27;5.10;;;15.80;93.00;;;;;;4975515;28;20551;-64
2022/10/28 00:24:46;;;;;;;12.48;4.97;;;15.80;93.00;;;;;;4975818;28;20038;-64
2022/10/28 00:27:12;;;;;;;9.60;4.63;;;15.80;93.20;;;;;;4974371;28;20031;-64
2022/10/28 00:29:38;;;;;;;10.93;4.18;;;15.80;93.20;;;;;;4975137;28;20477;-64
2022/10/28 00:32:03;;;;;;;8.63;4.18;;;15.80;93.00;;;;;;4973436;28;20387;-65
2022/10/28 00:34:29;;;;;;;15.40;4.53;;;15.80;92.90;;;;;;4974675;28;20430;-64
2022/10/28 00:36:55;;;;;;;11.68;4.90;;;15.80;92.90;;;;;;4974690;28;20053;-69
2022/10/28 00:39:24;;;;;;;19.58;4.88;;;15.70;92.90;;;;;;4975109;28;20098;-64
2022/10/28 00:41:54;;;;;;;13.50;4.57;;;15.70;92.90;;;;;;4975277;28;20081;-64
2022/10/28 00:44:38;;;;;;;12.52;5.10;;;15.70;92.80;;;;;;4974973;28;20500;-64
2022/10/28 00:47:25;;;;;;;15.02;4.90;;;15.70;92.90;;;;;;4975134;28;20039;-64
2022/10/28 00:49:55;;;;;;;10.23;4.30;;;15.70;92.90;;;;;;4953248;28;20034;-64
2022/10/28 00:52:26;;;;;;;7.65;4.90;;;15.70;93.20;;;;;;4974098;28;20531;-65
2022/10/28 00:54:55;;;;;;;10.17;4.60;;;15.60;93.00;;;;;;4975550;28;20436;-64
2022/10/28 00:57:25;;;;;;;13.90;5.43;;;15.60;93.10;;;;;;4976043;28;20034;-64
2022/10/28 00:59:53;;;;;;;17.63;5.22;;;15.60;93.00;;;;;;4970955;28;20050;-65
2022/10/28 01:02:19;;;;;;;10.43;5.10;;;15.60;93.00;;;;;;4971064;28;20034;-64
2022/10/28 01:04:46;;;;;;;8.55;4.93;;;15.50;93.00;;;;;;4972012;28;20515;-64
2022/10/28 01:07:12;;;;;;;11.80;5.40;;;15.50;93.00;;;;;;4974292;28;20140;-63
2022/10/28 01:09:39;;;;;;;9.82;5.55;;;15.50;93.00;;;;;;4973940;28;20038;-64
2022/10/28 01:12:13;;;;;;;11.75;5.43;;;15.50;93.00;;;;;;4975022;28;20337;-64
2022/10/28 01:14:45;;;;;;;11.48;5.53;;;15.50;93.00;;;;;;4975322;28;20106;-64
2022/10/28 01:17:32;;;;;;;10.93;5.13;;;15.50;93.00;;;;;;4975802;28;20041;-63
2022/10/28 01:20:10;;;;;;;12.32;5.25;;;15.40;93.00;;;;;;4975580;28;20500;-64
2022/10/28 01:23:02;;;;;;;10.23;4.93;;;15.40;93.00;;;;;;4975723;28;20552;-64
2022/10/28 01:25:58;;;;;;;13.52;5.38;;;15.40;93.10;;;;;;4975965;28;20062;-64
2022/10/28 01:28:47;;;;;;;8.45;4.13;;;15.40;93.00;;;;;;4975155;28;20073;-67
2022/10/28 01:31:31;;;;;;;8.90;4.85;;;15.30;93.00;;;;;;4970216;28;20587;-63
2022/10/28 01:34:14;;;;;;;10.23;4.63;;;15.30;93.10;;;;;;4975648;28;20031;-63
2022/10/28 01:36:45;;;;;;;16.55;5.20;;;15.30;93.10;;;;;;4974407;28;20081;-64
2022/10/28 01:39:29;;;;;;;15.20;5.68;;;15.30;93.20;;;;;;4972006;28;20035;-64
2022/10/28 01:42:07;;;;;;;11.40;5.68;;;15.30;93.30;;;;;;4972858;28;20042;-64
2022/10/28 01:44:45;;;;;;;16.75;5.32;;;15.30;93.40;;;;;;4972431;28;20030;-64
2022/10/28 01:47:29;;;;;;;14.07;5.15;;;15.30;93.40;;;;;;4973100;28;20037;-64
2022/10/28 01:50:08;;;;;;;10.98;6.15;;;15.30;93.30;;;;;;4974567;28;20384;-64
2022/10/28 01:52:37;;;;;;;14.30;5.50;;;15.30;93.20;;;;;;4972231;28;20047;-63
2022/10/28 01:55:17;;;;;;;13.05;5.63;;;15.30;93.20;;;;;;4973316;28;20035;-64
2022/10/28 01:57:45;;;;;;;9.85;4.90;;;15.30;93.20;;;;;;4972856;28;20481;-65
2022/10/28 02:00:11;;;;;;;10.45;5.10;;;15.30;93.20;;;;;;4973327;28;20374;-64
2022/10/28 02:02:37;;;;;;;10.82;5.05;;;15.30;93.40;;;;;;4974074;28;20027;-64
2022/10/28 02:05:23;;;;;;;14.55;4.95;;;15.20;93.40;;;;;;4974292;28;20468;-66
2022/10/28 02:07:51;;;;;;;12.70;4.80;;;15.30;93.50;;;;;;4974107;28;20063;-64
2022/10/28 02:10:22;;;;;;;11.20;4.88;;;15.30;93.50;;;;;;4973960;28;20503;-63
2022/10/28 02:12:53;;;;;;;8.65;4.45;;;15.20;93.50;;;;;;4973814;28;20089;-65
2022/10/28 02:15:49;;;;;;;12.93;5.10;;;15.20;93.40;;;;;;4973822;28;20027;-64
2022/10/28 02:19:08;;;;;;;11.45;5.07;;;15.20;93.50;;;;;;4973876;28;20481;-63
2022/10/28 02:22:12;;;;;;;17.73;5.15;;;15.20;93.50;;;;;;4952625;29;20469;-63
2022/10/28 02:25:03;;;;;;;6.47;4.30;;;15.20;93.50;;;;;;4967198;28;20095;-64
2022/10/28 02:27:35;;;;;;;8.98;4.60;;;15.20;93.50;;;;;;4974016;28;20114;-64
2022/10/28 02:30:14;;;;;;;11.20;4.75;;;15.10;93.40;;;;;;4973871;28;20437;-64
2022/10/28 02:32:45;;;;;;;7.35;4.70;;;15.20;93.40;;;;;;4973947;28;20390;-64
2022/10/28 02:35:17;;;;;;;7.18;4.50;;;15.10;93.50;;;;;;4973654;28;20396;-64
2022/10/28 02:37:45;;;;;;;6.95;3.97;;;15.10;93.50;;;;;;4973680;28;20097;-64
2022/10/28 02:40:19;;;;;;;10.07;5.13;;;15.10;93.30;;;;;;4974131;28;20420;-65
2022/10/28 02:42:50;;;;;;;7.10;4.45;;;15.10;93.30;;;;;;4974243;28;20062;-64
2022/10/28 02:45:23;;;;;;;7.60;4.30;;;15.10;93.30;;;;;;4973652;28;20081;-64
2022/10/28 02:47:56;;;;;;;12.18;4.72;;;15.00;93.30;;;;;;4973972;28;20058;-64
2022/10/28 02:50:29;;;;;;;8.13;4.68;;;15.10;93.30;;;;;;4973515;28;20493;-67
2022/10/28 02:52:58;;;;;;;10.43;4.40;;;15.10;93.20;;;;;;4973333;28;20046;-63
2022/10/28 02:55:29;;;;;;;15.57;4.88;;;15.00;93.20;;;;;;4973120;28;20034;-64
2022/10/28 02:57:56;;;;;;;6.35;4.72;;;15.00;93.10;;;;;;4973200;28;20170;-64
2022/10/28 03:00:23;;;;;;;11.82;5.15;;;15.00;93.10;;;;;;4974157;28;20385;-64
2022/10/28 03:02:50;;;;;;;13.32;5.75;;;14.90;93.10;;;;;;4974176;28;20027;-64
2022/10/28 03:05:15;;;;;;;11.65;4.45;;;14.90;93.20;;;;;;4974488;28;20070;-64
2022/10/28 03:07:41;;;;;;;9.40;5.85;;;14.90;93.20;;;;;;4974212;28;20500;-63
2022/10/28 03:10:08;;;;;;;13.55;4.40;;;14.90;93.10;;;;;;4974098;28;20041;-64
2022/10/28 03:12:34;;;;;;;14.07;4.70;;;14.90;93.10;;;;;;4974213;28;20043;-64
2022/10/28 03:15:00;;;;;;;9.27;4.63;;;14.90;93.20;;;;;;4973979;28;20031;-64
2022/10/28 03:17:26;;;;;;;10.20;5.10;;;14.90;93.10;;;;;;4974314;28;20039;-64
2022/10/28 03:19:51;;;;;;;16.13;4.95;;;14.80;93.00;;;;;;4973840;28;20047;-64
2022/10/28 03:22:17;;;;;;;11.75;4.80;;;14.80;92.90;;;;;;4973953;28;20046;-64
2022/10/28 03:24:43;;;;;;;9.13;4.40;;;14.80;93.00;;;;;;4974089;28;20069;-64
2022/10/28 03:27:08;;;;;;;11.88;3.95;;;14.70;93.00;;;;;;4974027;28;20039;-64
2022/10/28 03:29:34;;;;;;;12.65;5.15;;;14.80;93.00;;;;;;4973908;28;20046;-71
2022/10/28 03:32:00;;;;;;;13.93;5.03;;;14.70;92.90;;;;;;4973920;28;20471;-64
2022/10/28 03:34:25;;;;;;;9.32;4.22;;;14.70;93.00;;;;;;4972707;28;20038;-64
2022/10/28 03:36:51;;;;;;;8.75;3.97;;;14.70;93.00;;;;;;4974191;28;20109;-64
2022/10/28 03:39:16;;;;;;;10.38;4.30;;;14.60;93.00;;;;;;4973787;28;20063;-64
2022/10/28 03:41:42;;;;;;;9.38;4.90;;;14.60;93.00;;;;;;4973568;28;20050;-64
2022/10/28 03:44:08;;;;;;;13.80;4.70;;;14.60;93.10;;;;;;4974052;28;20043;-63
2022/10/28 03:46:34;;;;;;;14.40;4.22;;;14.60;93.20;;;;;;4973618;28;20114;-63
2022/10/28 03:48:59;;;;;;;6.65;3.70;;;14.60;93.10;;;;;;4972745;28;20058;-63
2022/10/28 03:51:25;;;;;;;8.88;3.67;;;14.60;93.10;;;;;;4973582;28;20090;-64
2022/10/28 03:53:50;;;;;;;8.68;4.18;;;14.60;93.20;;;;;;4973798;28;20031;-64
2022/10/28 03:56:16;;;;;;;11.68;4.55;;;14.60;93.10;;;;;;4973581;28;20039;-64
2022/10/28 03:58:42;;;;;;;12.73;4.10;;;14.60;93.20;;;;;;4973649;28;20035;-64
2022/10/28 04:01:07;;;;;;;10.52;4.88;;;14.60;93.30;;;;;;4973610;28;20109;-64
2022/10/28 04:03:33;;;;;;;9.23;5.10;;;14.60;93.40;;;;;;4973726;28;20071;-63
2022/10/28 04:05:59;;;;;;;10.85;4.43;;;14.60;93.50;;;;;;4973847;28;20070;-64
2022/10/28 04:08:24;;;;;;;9.13;4.30;;;14.60;93.40;;;;;;4976897;28;20039;-65
2022/10/28 04:10:50;;;;;;;13.57;4.30;;;14.60;93.40;;;;;;4977030;28;20042;-64
2022/10/28 04:13:16;;;;;;;8.55;4.60;;;14.50;93.40;;;;;;4977158;28;20097;-63
2022/10/28 04:15:42;;;;;;;13.13;5.10;;;14.50;93.40;;;;;;4977040;28;20037;-64
2022/10/28 04:18:08;;;;;;;11.93;4.15;;;14.50;93.40;;;;;;4976974;28;20477;-64
2022/10/28 04:20:34;;;;;;;13.88;4.30;;;14.50;93.40;;;;;;4976979;28;20038;-63
2022/10/28 04:23:00;;;;;;;10.18;5.18;;;14.50;93.30;;;;;;4976967;28;20432;-64
2022/10/28 04:25:26;;;;;;;13.77;4.50;;;14.50;93.20;;;;;;4976831;28;20035;-63
2022/10/28 04:27:52;;;;;;;11.35;4.97;;;14.40;93.10;;;;;;4976733;28;20043;-63
2022/10/28 04:30:18;;;;;;;12.25;4.55;;;14.40;93.10;;;;;;4976580;28;20358;-64
2022/10/28 04:32:44;;;;;;;13.82;4.47;;;14.40;93.20;;;;;;4976513;28;20071;-63
2022/10/28 04:35:11;;;;;;;14.05;4.43;;;14.40;93.20;;;;;;4976413;28;20066;-63
2022/10/28 04:37:37;;;;;;;15.52;4.82;;;14.40;93.20;;;;;;4976554;28;20031;-64
2022/10/28 04:40:04;;;;;;;13.55;4.30;;;14.40;93.20;;;;;;4976149;28;20105;-64
2022/10/28 04:42:30;;;;;;;10.75;4.22;;;14.40;93.20;;;;;;4976035;28;20158;-64
2022/10/28 04:44:56;;;;;;;14.13;4.18;;;14.40;93.20;;;;;;4973146;28;20110;-64
2022/10/28 04:47:22;;;;;;;10.13;4.45;;;14.40;93.10;;;;;;4972231;28;20042;-64
2022/10/28 04:49:47;;;;;;;14.70;4.80;;;14.40;93.10;;;;;;4976605;28;20081;-64
2022/10/28 04:52:13;;;;;;;16.25;4.95;;;14.40;93.10;;;;;;4976038;28;20055;-63
2022/10/28 04:54:39;;;;;;;14.40;4.60;;;14.30;93.10;;;;;;4976300;28;20037;-64
2022/10/28 04:57:05;;;;;;;13.00;4.32;;;14.30;93.10;;;;;;4976320;28;20035;-63
2022/10/28 04:59:31;;;;;;;7.85;4.20;;;14.30;93.00;;;;;;4975947;28;20114;-63
2022/10/28 05:01:56;;;;;;;13.32;4.40;;;14.30;92.90;;;;;;4975722;28;20113;-64
2022/10/28 05:04:22;;;;;;;12.80;4.45;;;14.20;92.80;;;;;;4975911;28;20105;-64
2022/10/28 05:06:48;;;;;;;10.88;4.72;;;14.20;92.80;;;;;;4975715;28;20066;-64
2022/10/28 05:09:13;;;;;;;19.20;5.97;;;14.20;92.80;;;;;;4971869;28;20448;-64
2022/10/28 05:11:39;;;;;;;10.75;5.53;;;14.20;92.80;;;;;;4952727;29;20047;-64
2022/10/28 05:14:05;;;;;;;16.27;5.75;;;14.20;92.80;;;;;;4952810;29;20119;-63
2022/10/28 05:16:30;;;;;;;8.52;4.82;;;14.10;92.70;;;;;;4956142;29;20493;-63
2022/10/28 05:18:57;;;;;;;11.57;4.47;;;14.10;92.70;;;;;;4955860;28;20059;-64
2022/10/28 05:21:23;;;;;;;19.83;4.72;;;14.10;92.70;;;;;;4955947;29;20043;-63
2022/10/28 05:23:48;;;;;;;8.43;4.30;;;14.10;92.80;;;;;;4956097;29;20102;-64
2022/10/28 05:26:14;;;;;;;16.02;5.25;;;14.00;92.70;;;;;;4956182;29;20513;-64
2022/10/28 05:28:40;;;;;;;22.48;5.70;;;14.00;92.80;;;;;;4955851;29;20190;-65
2022/10/28 05:31:06;;;;;;;12.35;6.00;;;14.00;92.70;;;;;;4955269;29;20051;-63
2022/10/28 05:33:34;;;;;;;16.85;6.40;;;14.00;92.70;;;;;;4955980;29;20035;-63
2022/10/28 05:36:00;;;;;;;18.63;7.05;;;14.00;92.70;;;;;;4955547;29;20035;-64
2022/10/28 05:38:27;;;;;;;14.38;6.82;;;13.90;92.70;;;;;;4955660;29;20046;-63
2022/10/28 05:40:52;;;;;;;18.17;6.15;;;13.90;92.80;;;;;;4955723;29;20039;-64
2022/10/28 05:43:18;;;;;;;14.15;5.75;;;13.90;93.00;;;;;;4955860;29;20398;-65
2022/10/28 05:45:50;;;;;;;16.77;5.70;;;13.90;93.00;;;;;;4954604;29;20106;-64
2022/10/28 05:48:16;;;;;;;15.57;5.43;;;13.90;93.20;;;;;;4955272;29;20027;-64
2022/10/28 05:50:41;;;;;;;12.88;5.15;;;13.90;93.40;;;;;;4954975;29;20118;-72
2022/10/28 05:53:07;;;;;;;16.67;5.18;;;13.90;93.40;;;;;;4954821;29;20073;-72
2022/10/28 05:55:34;;;;;;;11.40;4.72;;;13.90;93.60;;;;;;4955245;29;20031;-64
2022/10/28 05:57:59;;;;;;;16.15;5.10;;;13.90;93.80;;;;;;4955568;29;20035;-70
2022/10/28 06:00:26;;;;;;;19.35;4.75;;;14.00;93.90;;;;;;4954699;29;20142;-64
2022/10/28 06:02:52;;;;;;;16.15;4.10;;;14.00;94.00;;;;;;4959243;28;20393;-64
2022/10/28 06:05:18;;;;;;;8.98;4.30;;;14.00;94.10;;;;;;4962580;28;20027;-64
2022/10/28 06:07:44;;;;;;;6.35;4.00;;;14.00;94.20;;;;;;4959447;28;20048;-63
2022/10/28 06:10:10;;;;;;;10.80;4.38;;;14.10;94.30;;;;;;4955431;29;20027;-63
2022/10/28 06:12:36;;;;;;;11.13;4.63;;;14.10;94.30;;;;;;4957545;28;20081;-63
2022/10/28 06:15:02;;;;;;;16.67;4.80;;;14.10;94.30;;;;;;4963116;28;20066;-63
2022/10/28 06:17:28;;;;;;;15.27;4.65;;;14.10;94.30;;;;;;4970038;28;20458;-64
2022/10/28 06:19:53;;;;;;;18.83;4.65;;;14.10;94.20;;;;;;4955065;29;20035;-64
2022/10/28 06:22:19;;;;;;;13.20;4.55;;;14.20;94.30;;;;;;4954939;29;20552;-64
2022/10/28 06:24:45;;;;;;;8.98;4.47;;;14.10;94.40;;;;;;4954548;29;20466;-64
2022/10/28 06:27:11;;;;;;;20.48;5.50;;;14.20;94.40;;;;;;4954896;29;20035;-63
2022/10/28 06:29:37;;;;;;;13.32;6.57;;;14.30;94.20;;;;;;4954340;28;20042;-63
2022/10/28 06:32:02;;;;;;;23.55;7.90;;;14.30;94.00;;;;;;4954518;29;20043;-64
2022/10/28 06:34:28;;;;;;;22.48;7.93;;;14.20;94.00;;;;;;4954511;28;20039;-63
2022/10/28 06:36:54;;;;;;;15.70;7.32;;;14.30;93.90;;;;;;4955111;28;20043;-69
2022/10/28 06:39:19;;;;;;;20.00;8.23;;;14.30;94.00;;;;;;4955012;29;20031;-63
2022/10/28 06:41:45;;;;;;;25.63;8.40;;;14.30;94.10;;;;;;4955211;29;20050;-64
2022/10/28 06:44:11;;;;;;;25.50;8.05;;;14.30;94.10;;;;;;4955277;28;20045;-64
2022/10/28 06:46:36;;;;;;;24.02;9.05;;;14.40;94.10;;;;;;4955108;29;20074;-64
2022/10/28 06:49:03;;;;;;;19.15;7.90;;;14.40;94.20;;;;;;4954799;28;20035;-64
2022/10/28 06:51:30;;;;;;;18.98;7.30;;;14.40;94.40;;;;;;4954436;28;20044;-64
2022/10/28 06:53:56;;;;;;;21.08;7.13;;;14.40;94.40;;;;;;4955009;28;20039;-63
2022/10/28 06:56:22;;;;;;;20.58;6.40;;;14.50;94.50;;;;;;4955068;28;20045;-63
2022/10/28 06:58:54;;;;;;;14.48;5.70;;;14.60;94.50;;;;;;4954898;28;20067;-62
2022/10/28 07:01:20;;;;;;;28.90;6.50;;;14.70;94.40;;;;;;4954778;28;20043;-62
2022/10/28 07:03:48;;;;;;;22.70;6.93;;;14.70;94.40;;;;;;4954704;28;20070;-63
2022/10/28 07:06:14;;;;;;;25.52;6.63;;;14.80;94.40;;;;;;4954579;28;20027;-63
2022/10/28 07:08:40;;;;;;;28.50;6.93;;;14.90;94.30;;;;;;4954680;28;20043;-62
2022/10/28 07:11:06;;;;;;;26.95;7.43;;;14.90;94.30;;;;;;4954309;29;20039;-63
2022/10/28 07:13:32;;;;;;;30.92;6.80;;;15.00;94.30;;;;;;4969759;28;20509;-68
2022/10/28 07:15:59;;;;;;;19.40;7.38;;;15.00;94.30;;;;;;4954578;29;20040;-64
2022/10/28 07:18:26;;;;;;;33.13;7.45;;;15.10;94.20;;;;;;4954916;28;20126;-63
2022/10/28 07:20:52;;;;;;;30.15;6.57;;;15.10;94.10;;;;;;4954706;28;20043;-66
2022/10/28 07:23:18;;;;;;;27.52;6.97;;;15.20;94.00;;;;;;4954513;29;20030;-63
2022/10/28 07:25:51;;;;;;;21.40;6.30;;;15.30;94.20;;;;;;4954490;29;20050;-62
2022/10/28 07:28:17;;;;;;;17.70;6.78;;;15.30;94.20;;;;;;4954439;28;20123;-63
2022/10/28 07:30:43;;;;;;;20.52;5.97;;;15.30;94.20;;;;;;4954416;29;20122;-63
2022/10/28 07:33:08;;;;;;;21.35;5.68;;;15.30;94.20;;;;;;4954062;29;20047;-63
2022/10/28 07:35:34;;;;;;;23.38;6.85;;;15.30;94.20;;;;;;4954274;29;20035;-63
2022/10/28 07:38:00;;;;;;;13.90;4.28;;;15.40;94.20;;;;;;4954392;29;20050;-63
2022/10/28 07:40:26;;;;;;;10.60;4.05;;;15.40;94.20;;;;;;4955075;28;20037;-63
2022/10/28 07:42:51;;;;;;;6.55;3.70;;;15.50;94.20;;;;;;4958016;28;20114;-62
2022/10/28 07:45:18;;;;;;;9.27;3.70;;;15.50;94.10;;;;;;4958003;29;20119;-62
2022/10/28 07:47:44;;;;;;;12.25;3.67;;;15.60;94.20;;;;;;4958132;28;20403;-62
2022/10/28 07:50:10;;;;;;;9.27;3.50;;;15.60;94.20;;;;;;4957594;29;20043;-63
2022/10/28 07:52:36;;;;;;;10.00;3.47;;;15.70;94.20;;;;;;4956874;28;20077;-62
2022/10/28 07:55:03;;;;;;;13.45;3.67;;;15.70;94.30;;;;;;4957671;29;20043;-63
2022/10/28 07:57:29;;;;;;;8.75;3.88;;;15.80;94.30;;;;;;4957503;28;20070;-63
2022/10/28 07:59:55;;;;;;;8.52;3.55;;;15.80;94.20;;;;;;4957647;29;20063;-63
2022/10/28 08:02:23;;;;;;;8.55;5.03;;;15.90;94.20;;;;;;4966430;28;20133;-63
2022/10/28 08:04:49;;;;;;;9.25;3.72;;;16.00;94.30;;;;;;4974427;28;20117;-63
2022/10/28 08:07:15;;;;;;;14.18;4.25;;;16.00;94.10;;;;;;4974354;28;20073;-63
2022/10/28 08:09:41;;;;;;;17.38;3.50;;;16.10;93.90;;;;;;4973965;28;20435;-63
2022/10/28 08:12:08;;;;;;;12.20;3.00;;;16.20;93.60;;;;;;4973522;28;20061;-62
2022/10/28 08:14:34;;;;;;;7.35;3.20;;;16.30;93.30;;;;;;4973601;28;20412;-63
2022/10/28 08:17:00;;;;;;;7.03;3.13;;;16.30;93.10;;;;;;4976134;28;20042;-63
2022/10/28 08:19:26;;;;;;;7.38;3.10;;;16.30;93.00;;;;;;4973983;28;20075;-63
2022/10/28 08:21:52;;;;;;;9.30;3.72;;;16.40;92.80;;;;;;4975467;28;20460;-63
2022/10/28 08:24:17;;;;;;;8.45;2.92;;;16.50;92.50;;;;;;4976617;28;20045;-62
2022/10/28 08:26:43;;;;;;;9.88;2.95;;;16.60;92.40;;;;;;4976624;28;20030;-63
2022/10/28 08:29:11;;;;;;;8.63;2.95;;;16.60;92.10;;;;;;4976594;28;20059;-63
2022/10/28 08:31:40;;;;;;;9.35;3.15;;;16.70;92.10;;;;;;4976255;28;20145;-63
2022/10/28 08:34:05;;;;;;;6.30;2.88;;;16.70;92.20;;;;;;4976325;28;20389;-64
2022/10/28 08:36:32;;;;;;;8.45;2.80;;;16.80;92.40;;;;;;4976580;28;20035;-63
2022/10/28 08:38:59;;;;;;;8.55;2.80;;;16.90;92.50;;;;;;4975708;28;20133;-63
2022/10/28 08:41:43;;;;;;;9.38;3.03;;;17.00;92.20;;;;;;4975549;28;20048;-63
2022/10/28 08:44:30;;;;;;;7.57;3.35;;;17.00;92.30;;;;;;4976157;28;20421;-63
2022/10/28 08:47:07;;;;;;;12.30;3.35;;;17.10;92.10;;;;;;4976194;28;20042;-63
2022/10/28 08:49:38;;;;;;;4.60;2.90;;;17.20;92.10;;;;;;4976197;28;20042;-63
2022/10/28 08:52:16;;;;;;;17.58;3.97;;;17.20;91.80;;;;;;4975103;28;20046;-62
2022/10/28 08:54:46;;;;;;;18.02;3.33;;;17.30;92.00;;;;;;4976121;28;20057;-68
2022/10/28 08:57:24;;;;;;;11.23;2.97;;;17.40;91.90;;;;;;4975836;28;20396;-63
2022/10/28 08:59:52;;;;;;;13.40;2.80;;;17.40;91.70;;;;;;4976137;28;20157;-62
2022/10/28 09:02:32;;;;;;;24.10;4.60;;;17.50;91.70;;;;;;4975929;28;20102;-62
2022/10/28 09:05:20;;;;;;;7.90;2.85;;;17.60;91.40;;;;;;4973999;28;20031;-64
2022/10/28 09:07:46;;;;;;;6.45;3.00;;;17.70;91.30;;;;;;4975371;28;20035;-63
2022/10/28 09:10:16;;;;;;;8.77;3.50;;;17.80;91.80;;;;;;4975545;28;20071;-63
2022/10/28 09:13:03;;;;;;;13.05;3.25;;;17.90;91.50;;;;;;4975914;28;20493;-63
2022/10/28 09:15:53;;;;;;;12.77;3.35;;;18.00;91.20;;;;;;4975300;28;20027;-63
2022/10/28 09:18:21;;;;;;;21.90;3.60;;;18.00;91.10;;;;;;4974867;28;20058;-63
2022/10/28 09:20:53;;;;;;;12.63;3.20;;;18.10;91.40;;;;;;4975467;28;20495;-63
2022/10/28 09:23:32;;;;;;;9.30;3.53;;;18.20;91.40;;;;;;4975567;28;20492;-63
2022/10/28 09:26:19;;;;;;;12.75;3.17;;;18.30;90.90;;;;;;4975513;28;20089;-63
2022/10/28 09:28:55;;;;;;;15.75;3.40;;;18.30;91.00;;;;;;4975629;28;20471;-62
2022/10/28 09:31:27;;;;;;;13.18;3.75;;;18.50;90.80;;;;;;4975273;28;20038;-63
2022/10/28 09:34:36;;;;;;;11.02;3.30;;;18.60;91.00;;;;;;4975341;28;20412;-63
2022/10/28 09:37:05;;;;;;;20.90;4.32;;;18.70;91.00;;;;;;4954075;29;20043;-63
2022/10/28 09:39:40;;;;;;;13.02;3.70;;;18.80;90.90;;;;;;4971017;28;20042;-64
2022/10/28 09:42:11;;;;;;;11.30;3.08;;;18.90;90.70;;;;;;4975223;28;20038;-64
2022/10/28 09:44:55;;;;;;;11.60;3.05;;;18.90;90.30;;;;;;4975009;28;20101;-63
2022/10/28 09:47:26;;;;;;;14.13;3.33;;;19.00;90.50;;;;;;4975079;28;20121;-63
2022/10/28 09:49:55;;;;;;;9.68;3.35;;;19.10;90.30;;;;;;4975188;28;20081;-63
2022/10/28 09:52:35;;;;;;;10.60;3.33;;;19.20;90.30;;;;;;4974592;28;20106;-64
2022/10/28 09:55:12;;;;;;;9.90;3.42;;;19.30;90.30;;;;;;4974977;28;20042;-62
2022/10/28 09:57:38;;;;;;;12.65;3.75;;;19.30;89.40;;;;;;4973584;28;20039;-63
2022/10/28 10:00:04;;;;;;;10.13;2.85;;;19.50;89.50;;;;;;4974976;28;20392;-62
2022/10/28 10:02:32;;;;;;;9.90;2.78;;;19.50;88.50;;;;;;4974888;28;20039;-62
2022/10/28 10:05:00;;;;;;;14.25;3.30;;;19.70;88.90;;;;;;4974601;28;20499;-61
2022/10/28 10:07:39;;;;;;;7.65;2.83;;;19.70;86.90;;;;;;4974537;28;20035;-65
2022/10/28 10:10:21;;;;;;;13.13;3.13;;;19.80;86.70;;;;;;4974991;28;20045;-62
2022/10/28 10:12:49;;;;;;;10.17;3.60;;;19.90;86.90;;;;;;4974644;28;20046;-62
2022/10/28 10:15:31;;;;;;;7.07;2.75;;;19.90;86.50;;;;;;4974827;28;20058;-62
2022/10/28 10:18:01;;;;;;;7.93;3.40;;;20.00;86.70;;;;;;4974605;28;20039;-67
2022/10/28 10:20:26;;;;;;;16.50;3.10;;;20.00;86.40;;;;;;4974453;28;20058;-62
2022/10/28 10:22:52;;;;;;;9.57;2.88;;;20.10;86.40;;;;;;4974906;28;20039;-62
2022/10/28 10:25:18;;;;;;;17.98;3.00;;;20.20;87.20;;;;;;4974521;28;20114;-62
2022/10/28 10:27:54;;;;;;;19.10;2.80;;;20.30;85.90;;;;;;4974484;28;20038;-63
2022/10/28 10:30:28;;;;;;;12.23;3.65;;;20.30;85.30;;;;;;4974512;28;20027;-62
2022/10/28 10:32:54;;;;;;;12.52;3.55;;;20.40;85.10;;;;;;4974438;28;20078;-62
2022/10/28 10:35:24;;;;;;;14.50;3.47;;;20.40;83.50;;;;;;4974519;28;20082;-62
2022/10/28 10:37:50;;;;;;;15.65;4.20;;;20.50;82.70;;;;;;4974227;28;20070;-62
2022/10/28 10:40:19;;;;;;;8.52;3.35;;;20.60;80.80;;;;;;4974166;28;20511;-62
2022/10/28 10:42:45;;;;;;;25.42;3.80;;;20.60;80.60;;;;;;4974084;28;20115;-62
2022/10/28 10:45:21;;;;;;;18.08;3.83;;;20.70;80.70;;;;;;4973899;28;20055;-63
2022/10/28 10:47:46;;;;;;;13.20;3.35;;;20.80;81.40;;;;;;4974253;28;20456;-62
2022/10/28 10:50:22;;;;;;;14.10;2.83;;;20.80;80.80;;;;;;4974554;28;20031;-62
2022/10/28 10:52:53;;;;;;;10.27;2.83;;;20.90;81.00;;;;;;4974071;28;20050;-62
2022/10/28 10:55:24;;;;;;;17.40;3.13;;;21.00;80.10;;;;;;4974240;28;20111;-62
2022/10/28 10:57:50;;;;;;;12.13;3.17;;;21.10;79.00;;;;;;4974277;28;20031;-62
2022/10/28 11:00:20;;;;;;;11.57;2.80;;;21.10;78.60;;;;;;4954857;28;20098;-62
2022/10/28 11:02:46;;;;;;;7.82;2.58;;;21.20;77.30;;;;;;4954817;29;20039;-62
2022/10/28 11:05:20;;;;;;;10.30;2.53;;;21.20;76.10;;;;;;4954514;29;20486;-65
2022/10/28 11:07:48;;;;;;;14.65;2.40;;;21.30;76.50;;;;;;4954424;29;20039;-62
2022/10/28 11:10:26;;;;;;;12.18;2.33;;;21.40;76.10;;;;;;4954619;29;20557;-64
2022/10/28 11:12:54;;;;;;;6.68;2.55;;;21.40;75.30;;;;;;4953151;29;20052;-63
2022/10/28 11:15:27;;;;;;;12.88;2.83;;;21.50;74.70;;;;;;4957708;28;20062;-62
2022/10/28 11:17:57;;;;;;;10.25;2.63;;;21.50;74.20;;;;;;4961935;28;20508;-62
2022/10/28 11:20:27;;;;;;;5.55;2.40;;;21.60;71.00;;;;;;4963340;28;20074;-62
2022/10/28 11:23:24;;;;;;;10.82;2.65;;;21.60;72.00;;;;;;4969240;28;20035;-62
2022/10/28 11:25:53;;;;;;;8.55;2.50;;;21.70;71.80;;;;;;4957625;29;20098;-63
2022/10/28 11:28:32;;;;;;;11.73;2.58;;;21.80;74.30;;;;;;4957928;28;20494;-62
2022/10/28 11:31:03;;;;;;;15.60;3.10;;;21.80;73.80;;;;;;4958156;28;20058;-62
2022/10/28 11:33:33;;;;;;;13.15;2.50;;;21.90;73.90;;;;;;4957297;29;20078;-67
2022/10/28 11:36:11;;;;;;;8.60;2.45;;;22.00;73.50;;;;;;4956149;29;20039;-62
2022/10/28 11:38:46;;;;;;;13.60;2.60;;;22.00;73.70;;;;;;4954418;29;20110;-63
2022/10/28 11:41:38;;;;;;;11.48;2.58;;;22.10;73.10;;;;;;4954489;29;20039;-63
2022/10/28 11:44:24;;;;;;;6.72;2.80;;;22.20;73.50;;;;;;4955628;28;20039;-62
2022/10/28 11:46:49;;;;;;;11.18;3.05;;;22.20;72.90;;;;;;4957852;28;20363;-62
2022/10/28 11:50:00;;;;;;;9.85;2.20;;;22.20;73.70;;;;;;4957313;29;20102;-63
2022/10/28 11:52:41;;;;;;;9.15;2.58;;;22.30;72.50;;;;;;4956927;28;20066;-62
2022/10/28 11:55:31;;;;;;;9.27;2.20;;;22.40;72.90;;;;;;4956862;29;20042;-61
2022/10/28 11:58:12;;;;;;;5.70;2.20;;;22.40;72.70;;;;;;4957299;28;20086;-62
2022/10/28 12:01:04;;;;;;;6.95;2.10;;;22.40;72.20;;;;;;4957168;28;20034;-62
2022/10/28 12:04:03;;;;;;;7.10;2.28;;;22.40;72.80;;;;;;4956938;29;20158;-63
2022/10/28 12:06:47;;;;;;;10.13;2.72;;;22.50;72.40;;;;;;4957512;29;20035;-62
2022/10/28 12:09:33;;;;;;;4.72;2.20;;;22.60;72.30;;;;;;4957465;29;20032;-62
2022/10/28 12:12:11;;;;;;;13.73;2.58;;;22.60;70.80;;;;;;4957169;28;20050;-63
2022/10/28 12:14:53;;;;;;;13.25;2.47;;;22.60;70.40;;;;;;4957421;29;20505;-62
2022/10/28 12:17:37;;;;;;;6.57;2.50;;;22.70;69.50;;;;;;4956989;29;20094;-63
2022/10/28 12:20:12;;;;;;;6.80;2.10;;;22.70;70.00;;;;;;4957473;28;20038;-63
2022/10/28 12:23:10;;;;;;;7.03;2.05;;;22.80;69.50;;;;;;4956962;29;20039;-62
2022/10/28 12:25:39;;;;;;;5.45;2.60;;;22.80;70.20;;;;;;4956401;29;20043;-62
2022/10/28 12:28:32;;;;;;;8.48;2.15;;;22.80;71.10;;;;;;4955709;28;20035;-62
2022/10/28 12:30:58;;;;;;;12.23;2.50;;;22.90;70.00;;;;;;4956743;28;20114;-62
2022/10/28 12:33:47;;;;;;;6.20;2.00;;;22.90;69.30;;;;;;4956833;28;20031;-63
2022/10/28 12:36:31;;;;;;;4.65;2.10;;;22.90;68.70;;;;;;4957127;28;20036;-65
2022/10/28 12:39:05;;;;;;;8.13;1.90;;;23.00;67.80;;;;;;4957073;28;20031;-63
2022/10/28 12:41:55;;;;;;;9.75;2.10;;;23.00;69.10;;;;;;4957262;28;20185;-62
2022/10/28 12:44:23;;;;;;;8.43;2.67;;;23.10;70.10;;;;;;4956958;29;20049;-63
2022/10/28 12:47:09;;;;;;;5.43;2.08;;;23.10;70.00;;;;;;4956993;28;20390;-62
2022/10/28 12:49:52;;;;;;;10.27;2.10;;;23.10;69.40;;;;;;4956241;29;20080;-62
2022/10/28 12:52:29;;;;;;;10.48;2.08;;;23.10;69.30;;;;;;4956704;29;20138;-62
2022/10/28 12:55:13;;;;;;;6.75;2.05;;;23.10;68.60;;;;;;4956781;29;20042;-67
2022/10/28 12:57:50;;;;;;;10.20;2.20;;;23.20;68.30;;;;;;4956823;29;20041;-62
2022/10/28 13:00:22;;;;;;;8.32;2.30;;;23.10;68.20;;;;;;4956421;28;20031;-62